Time;durP1;ratioP1;P1;durP2;ratioP2;P2;SDS_P1;SDS_P2;PMS_P1;PMS_P2;Temp;Humidity;BMP_temperature;BMP_pressure;BME280_temperature;BME280_humidity;BME280_pressure;Samples;Min_cycle;Max_cycle;Signal;HPM_P1;HPM_P2
2023/11/20 18:54:27;;;;;;;;;;;;;;;20.97;54.67;100203.31;5013620;27;10077;-75
2023/11/20 18:56:54;;;;;;;;;;;;;;;20.98;55.04;100222.06;4989822;28;2274;-72
2023/11/20 18:59:20;;;;;;;;;;;;;;;20.88;55.21;100220.31;4991789;28;2635;-69
2023/11/20 19:01:50;;;;;;;;;;;;;;;20.90;55.52;100222.53;4995677;28;6224;-73
2023/11/20 19:04:19;;;;;;;;;;;;;;;20.87;55.61;100218.84;5005635;28;2930;-73
2023/11/20 19:06:47;;;;;;;;;;;;;;;20.86;55.56;100223.13;5006080;28;2261;-73
2023/11/20 19:09:14;;;;;;;;;;;;;;;20.84;55.76;100225.91;5008841;28;2713;-73
2023/11/20 19:11:41;;;;;;;;;;;;;;;20.82;55.85;100237.38;5008867;28;2550;-72
2023/11/20 19:14:08;;;;;;;;;;;;;;;20.78;56.00;100228.59;5006348;28;2430;-73
2023/11/20 19:16:35;;;;;;;;;;;;;;;20.80;56.28;100231.56;5004161;28;2252;-73
2023/11/20 19:19:01;;;;;;;;;;;;;;;20.78;56.26;100231.47;5009549;28;2277;-73
2023/11/20 19:21:28;;;;;;;;;;;;;;;20.78;55.91;100234.38;5007017;28;2868;-73
2023/11/20 19:23:54;;;;;;;;;;;;;;;20.78;56.07;100240.13;5006907;28;2526;-73
2023/11/20 19:26:23;;;;;;;;;;;;;;;20.75;56.17;100235.69;5005887;28;2310;-73
2023/11/20 19:28:50;;;;;;;;;;;;;;;20.71;56.39;100252.81;5004618;28;2375;-73
2023/11/20 19:31:17;;;;;;;;;;;;;;;20.75;56.40;100241.44;5005842;28;6507;-79
2023/11/20 19:33:44;;;;;;;;;;;;;;;20.75;56.49;100247.19;5005340;28;5220;-73
2023/11/20 19:36:10;;;;;;;;;;;;;;;20.77;56.68;100241.50;5005816;28;2332;-73
2023/11/20 19:38:37;;;;;;;;;;;;;;;20.79;56.25;100252.34;5005625;28;2107;-71
2023/11/20 19:41:07;;;;;;;;;;;;;;;20.79;56.24;100247.34;5004109;28;3627;-72
2023/11/20 19:43:33;;;;;;;;;;;;;;;20.82;56.61;100242.38;5007217;28;2393;-72
2023/11/20 19:46:06;;;;;;;;;;;;;;;20.75;57.42;100252.22;5006718;28;2310;-72
2023/11/20 19:48:33;;;;;;;;;;;;;;;20.79;56.92;100255.22;5003882;28;2279;-71
2023/11/20 19:50:59;;;;;;;;;;;;;;;20.81;56.70;100250.28;5004851;28;2332;-71
2023/11/20 19:53:26;;;;;;;;;;;;;;;20.78;56.73;100245.88;5017507;28;2341;-72
2023/11/20 19:55:53;;;;;;;;;;;;;;;20.76;56.73;100254.44;5025655;28;2325;-72
2023/11/20 19:58:19;;;;;;;;;;;;;;;20.74;56.47;100251.47;5023592;28;2339;-72
2023/11/20 20:00:46;;;;;;;;;;;;;;;20.71;56.50;100250.66;5027153;28;6232;-72
2023/11/20 20:03:12;;;;;;;;;;;;;;;20.72;56.60;100248.53;5026088;28;2355;-71
2023/11/20 20:05:40;;;;;;;;;;;;;;;20.72;56.68;100251.41;5011705;28;2308;-72
2023/11/20 20:08:09;;;;;;;;;;;;;;;20.71;56.55;100253.53;5011550;28;2344;-72
2023/11/20 20:10:37;;;;;;;;;;;;;;;20.72;56.71;100248.53;5010584;28;2308;-71
2023/11/20 20:13:08;;;;;;;;;;;;;;;20.71;56.41;100244.19;5012608;28;2252;-72
2023/11/20 20:15:45;;;;;;;;;;;;;;;20.71;56.78;100250.66;5010843;28;2264;-72
2023/11/20 20:18:13;;;;;;;;;;;;;;;20.66;56.91;100245.44;5012156;28;2351;-72
2023/11/20 20:20:40;;;;;;;;;;;;;;;20.70;56.94;100245.56;5012059;28;2332;-70
2023/11/20 20:23:07;;;;;;;;;;;;;;;20.70;56.60;100257.81;4999128;28;2309;-70
2023/11/20 20:25:44;;;;;;;;;;;;;;;20.69;56.85;100252.75;5011891;28;2403;-71
2023/11/20 20:28:10;;;;;;;;;;;;;;;20.70;56.83;100259.97;5009921;28;2419;-70
2023/11/20 20:30:37;;;;;;;;;;;;;;;20.68;56.84;100254.13;5008936;28;6390;-70
2023/11/20 20:33:04;;;;;;;;;;;;;;;20.67;56.65;100264.19;5010785;28;2414;-70
2023/11/20 20:35:40;;;;;;;;;;;;;;;20.67;56.45;100258.41;5011801;28;2304;-70
2023/11/20 20:38:06;;;;;;;;;;;;;;;20.66;56.58;100260.56;5012019;28;2357;-70
2023/11/20 20:40:33;;;;;;;;;;;;;;;20.67;56.60;100264.19;5013674;28;2727;-69
2023/11/20 20:43:01;;;;;;;;;;;;;;;20.67;56.71;100267.06;5011122;28;2410;-70
2023/11/20 20:45:28;;;;;;;;;;;;;;;20.66;56.58;100256.94;5012100;28;2426;-69
2023/11/20 20:47:57;;;;;;;;;;;;;;;20.68;56.68;100265.63;5012051;28;2299;-72
2023/11/20 20:50:26;;;;;;;;;;;;;;;20.72;55.97;100257.16;4994365;28;2197;-73
2023/11/20 20:52:53;;;;;;;;;;;;;;;20.73;56.00;100270.16;5010783;28;2345;-71
2023/11/20 20:55:19;;;;;;;;;;;;;;;20.75;55.75;100270.19;5011997;28;2075;-73
2023/11/20 20:57:46;;;;;;;;;;;;;;;20.76;55.61;100268.81;5001340;28;2116;-73
2023/11/20 21:00:14;;;;;;;;;;;;;;;20.77;55.34;100266.66;5011299;28;6035;-73
2023/11/20 21:02:42;;;;;;;;;;;;;;;20.77;55.27;100278.91;4995627;28;2231;-73
2023/11/20 21:05:10;;;;;;;;;;;;;;;20.76;55.50;100277.44;5011755;28;1964;-73
2023/11/20 21:07:36;;;;;;;;;;;;;;;20.77;55.28;100273.16;5012748;28;2132;-72
2023/11/20 21:10:06;;;;;;;;;;;;;;;20.76;55.45;100274.56;5012405;28;1985;-73
2023/11/20 21:12:32;;;;;;;;;;;;;;;20.77;55.19;100272.41;5011490;28;2202;-73
2023/11/20 21:14:59;;;;;;;;;;;;;;;20.75;55.46;100270.19;5011845;28;2138;-72
2023/11/20 21:17:26;;;;;;;;;;;;;;;20.77;55.17;100275.31;5011992;28;2202;-72
2023/11/20 21:19:53;;;;;;;;;;;;;;;20.76;55.04;100271.69;5012577;28;1998;-73
2023/11/20 21:22:20;;;;;;;;;;;;;;;20.77;55.17;100276.03;5011390;28;2099;-73
2023/11/20 21:24:47;;;;;;;;;;;;;;;20.76;55.18;100271.69;5013214;28;2147;-72
2023/11/20 21:27:15;;;;;;;;;;;;;;;20.75;55.18;100267.31;5011548;28;2123;-73
2023/11/20 21:29:42;;;;;;;;;;;;;;;20.76;54.96;100277.44;5013786;28;1697;-74
2023/11/20 21:32:09;;;;;;;;;;;;;;;20.76;55.13;100280.31;4994538;28;8486;-73
2023/11/20 21:34:40;;;;;;;;;;;;;;;20.77;54.87;100281.78;5013678;28;1911;-73
2023/11/20 21:37:11;;;;;;;;;;;;;;;20.77;54.78;100283.94;5011918;28;1870;-72
2023/11/20 21:39:39;;;;;;;;;;;;;;;20.76;54.88;100286.06;5012100;28;2178;-71
2023/11/20 21:42:07;;;;;;;;;;;;;;;20.75;54.94;100287.47;5014760;28;2230;-71
2023/11/20 21:44:33;;;;;;;;;;;;;;;20.76;54.95;100279.59;5012835;28;2154;-73
2023/11/20 21:46:59;;;;;;;;;;;;;;;20.76;55.06;100291.09;5012803;28;2083;-71
2023/11/20 21:49:28;;;;;;;;;;;;;;;20.75;54.84;100287.47;5014591;28;2123;-71
2023/11/20 21:51:55;;;;;;;;;;;;;;;20.76;54.75;100283.19;5013890;28;2139;-71
2023/11/20 21:54:21;;;;;;;;;;;;;;;20.75;55.04;100287.47;5012420;28;2251;-71
2023/11/20 21:56:49;;;;;;;;;;;;;;;20.76;54.70;100286.06;5011973;28;2554;-71
2023/11/20 21:59:17;;;;;;;;;;;;;;;20.78;54.58;100277.53;4997843;28;2077;-71
2023/11/20 22:01:43;;;;;;;;;;;;;;;20.79;54.71;100290.50;5012621;28;6035;-71
2023/11/20 22:04:10;;;;;;;;;;;;;;;20.80;54.59;100288.34;5014162;28;1877;-71
2023/11/20 22:06:45;;;;;;;;;;;;;;;20.80;54.81;100294.84;5014197;28;2174;-71
2023/11/20 22:09:13;;;;;;;;;;;;;;;20.80;55.00;100289.09;5012200;28;2151;-71
2023/11/20 22:11:39;;;;;;;;;;;;;;;20.80;54.72;100288.34;5013595;28;2218;-71
2023/11/20 22:14:06;;;;;;;;;;;;;;;20.80;54.65;100294.09;5013826;28;2096;-72
2023/11/20 22:16:41;;;;;;;;;;;;;;;20.81;54.82;100290.56;5011506;28;2056;-71
2023/11/20 22:19:09;;;;;;;;;;;;;;;20.81;54.73;100290.56;5015479;28;1912;-72
2023/11/20 22:21:36;;;;;;;;;;;;;;;20.81;54.70;100296.31;5011898;28;2268;-71
2023/11/20 22:24:03;;;;;;;;;;;;;;;20.80;54.99;100294.84;4997898;28;2077;-72
2023/11/20 22:26:36;;;;;;;;;;;;;;;20.81;54.48;100302.06;4997772;28;2203;-71
2023/11/20 22:29:03;;;;;;;;;;;;;;;20.82;54.83;100299.94;5014312;28;1749;-72
2023/11/20 22:31:30;;;;;;;;;;;;;;;20.83;54.60;100299.28;5010775;28;6017;-72
2023/11/20 22:33:57;;;;;;;;;;;;;;;20.82;54.77;100297.81;4998132;28;2188;-72
2023/11/20 22:36:23;;;;;;;;;;;;;;;20.83;54.54;100295.66;5014353;28;1623;-71
2023/11/20 22:38:51;;;;;;;;;;;;;;;20.82;54.49;100297.81;4997352;28;2172;-72
2023/11/20 22:41:17;;;;;;;;;;;;;;;20.82;54.96;100300.69;5014321;28;2075;-72
2023/11/20 22:43:47;;;;;;;;;;;;;;;20.84;54.69;100300.00;5014474;28;1556;-72
2023/11/20 22:46:13;;;;;;;;;;;;;;;20.83;54.64;100293.53;5012681;28;1779;-72
2023/11/20 22:48:40;;;;;;;;;;;;;;;20.84;54.55;100297.84;5014255;28;2089;-72
2023/11/20 22:51:06;;;;;;;;;;;;;;;20.82;54.62;100297.81;4995417;28;1816;-72
2023/11/20 22:53:33;;;;;;;;;;;;;;;20.83;54.72;100295.66;5013617;28;2147;-72
2023/11/20 22:56:08;;;;;;;;;;;;;;;20.82;54.79;100286.31;4997182;28;1848;-72
2023/11/20 22:58:34;;;;;;;;;;;;;;;20.83;54.56;100292.78;4998870;28;2077;-71
2023/11/20 23:01:01;;;;;;;;;;;;;;;20.83;54.91;100299.28;5013620;28;6190;-71
2023/11/20 23:03:30;;;;;;;;;;;;;;;20.84;54.88;100300.72;5013137;28;1854;-71
2023/11/20 23:06:05;;;;;;;;;;;;;;;20.84;54.64;100300.00;5000566;28;1729;-71
2023/11/20 23:08:33;;;;;;;;;;;;;;;20.82;54.66;100303.56;4993545;28;2431;-71
2023/11/20 23:11:00;;;;;;;;;;;;;;;20.82;54.86;100303.56;5013655;28;1803;-71
2023/11/20 23:13:27;;;;;;;;;;;;;;;20.82;54.54;100306.44;5000768;28;1918;-71
2023/11/20 23:15:53;;;;;;;;;;;;;;;20.82;54.72;100309.31;5013307;28;1740;-71
2023/11/20 23:18:20;;;;;;;;;;;;;;;20.83;54.59;100310.06;5014103;28;2094;-71
2023/11/20 23:20:46;;;;;;;;;;;;;;;20.82;54.65;100308.56;5012093;28;1720;-71
2023/11/20 23:23:14;;;;;;;;;;;;;;;20.82;54.61;100309.31;5013530;28;2107;-71
2023/11/20 23:25:40;;;;;;;;;;;;;;;20.81;54.85;100313.59;5012173;28;2157;-71
2023/11/20 23:28:09;;;;;;;;;;;;;;;20.82;54.66;100312.19;5013567;28;2264;-72
2023/11/20 23:30:36;;;;;;;;;;;;;;;20.82;54.53;100315.06;5002761;28;6056;-71
2023/11/20 23:33:03;;;;;;;;;;;;;;;20.80;54.68;100306.38;4997011;28;2028;-71
2023/11/20 23:35:30;;;;;;;;;;;;;;;20.80;54.57;100317.13;5010986;28;2226;-71
2023/11/20 23:37:56;;;;;;;;;;;;;;;20.79;54.99;100316.38;5012724;28;2257;-76
2023/11/20 23:40:23;;;;;;;;;;;;;;;20.80;54.68;100306.38;5014816;28;2177;-72
2023/11/20 23:42:50;;;;;;;;;;;;;;;20.78;54.77;100319.94;5016078;28;2182;-71
2023/11/20 23:45:21;;;;;;;;;;;;;;;20.78;54.64;100326.44;5016415;28;2115;-71
2023/11/20 23:47:47;;;;;;;;;;;;;;;20.79;54.59;100332.91;5015804;28;2369;-71
2023/11/20 23:50:14;;;;;;;;;;;;;;;20.77;54.54;100333.56;5015513;28;2150;-71
2023/11/20 23:52:41;;;;;;;;;;;;;;;20.78;54.55;100332.19;5015480;28;2563;-71
2023/11/20 23:55:08;;;;;;;;;;;;;;;20.78;54.53;100343.69;5016675;28;2186;-71
2023/11/20 23:57:34;;;;;;;;;;;;;;;20.78;54.51;100337.22;5016940;28;2174;-72
